createdAt,value
2023-01-09T00:01:49.547Z,-10.29
2023-01-09T00:04:20.110Z,-10.22
2023-01-09T00:06:54.206Z,-10.13
2023-01-09T00:09:24.010Z,-10.15
2023-01-09T00:11:52.504Z,-10.00
2023-01-09T00:14:20.080Z,-10.01
2023-01-09T00:16:48.998Z,-10.14
2023-01-09T00:19:16.764Z,-10.22
2023-01-09T00:21:44.439Z,-10.12
2023-01-09T00:24:12.115Z,-9.99
2023-01-09T00:26:39.613Z,-10.15
2023-01-09T00:29:10.971Z,-10.20
2023-01-09T00:31:43.731Z,-10.20
2023-01-09T00:34:12.044Z,-10.03
2023-01-09T00:36:40.093Z,-10.06
2023-01-09T00:39:07.637Z,-10.07
2023-01-09T00:41:40.739Z,-10.17
2023-01-09T00:44:14.824Z,-10.41
2023-01-09T00:46:47.805Z,-10.38
2023-01-09T00:49:16.731Z,-10.33
2023-01-09T00:51:44.482Z,-10.38
2023-01-09T00:54:15.297Z,-10.32
2023-01-09T00:56:43.697Z,-10.34
2023-01-09T00:59:11.359Z,-10.25
2023-01-09T01:01:40.412Z,-10.31
2023-01-09T01:04:29.753Z,-10.32
2023-01-09T08:06:51.435Z,-8.62
2023-01-09T08:09:19.203Z,-8.51
2023-01-09T08:11:57.584Z,-8.48
2023-01-09T08:15:49.460Z,-8.28
2023-01-09T08:18:20.032Z,-8.09
2023-01-09T08:20:50.903Z,-8.13
2023-01-09T08:28:51.200Z,-7.95
2023-01-09T08:31:21.946Z,-7.83
2023-01-09T08:33:51.901Z,-7.78
2023-01-09T08:36:20.943Z,-7.73
2023-01-09T08:38:48.559Z,-7.57
2023-01-09T08:41:34.737Z,-7.48
2023-01-09T08:44:20.850Z,-7.35
2023-01-09T08:47:06.932Z,-7.31
2023-01-09T08:49:36.454Z,-7.19
2023-01-09T08:52:06.282Z,-7.09
2023-01-09T08:54:36.968Z,-6.97
2023-01-09T08:57:05.083Z,-6.72
2023-01-09T08:59:32.749Z,-6.59
2023-01-09T09:02:00.875Z,-6.49
2023-01-09T09:04:28.558Z,-6.47
2023-01-09T09:06:56.162Z,-6.45
2023-01-09T09:09:25.852Z,-6.27
2023-01-09T09:11:55.167Z,-6.08
2023-01-09T09:14:42.967Z,-6.01
2023-01-09T09:17:10.597Z,-6.00
2023-01-09T09:19:39.666Z,-6.06
2023-01-09T09:22:07.138Z,-6.07
2023-01-09T09:24:34.850Z,-5.87
2023-01-09T09:27:03.262Z,-5.73
2023-01-09T09:29:30.852Z,-5.49
2023-01-09T09:32:00.744Z,-5.42
2023-01-09T09:34:32.513Z,-5.50
2023-01-09T09:37:04.841Z,-5.33
2023-01-09T09:39:38.409Z,-5.32
2023-01-09T09:42:46.781Z,-5.35
2023-01-09T09:45:56.848Z,-5.15
2023-01-09T09:48:39.371Z,-5.16
2023-01-09T09:51:39.589Z,-5.05
2023-01-09T09:54:15.180Z,-4.95
2023-01-09T09:56:51.471Z,-4.81
2023-01-09T09:59:23.774Z,-4.62
2023-01-09T10:02:00.528Z,-4.71
2023-01-09T10:04:33.585Z,-4.70
2023-01-09T10:07:09.642Z,-4.51
2023-01-09T10:09:49.304Z,-4.43
2023-01-09T10:12:32.136Z,-4.34
2023-01-09T10:15:03.356Z,-4.33
2023-01-09T10:17:40.754Z,-4.18
2023-01-09T10:20:24.737Z,-4.13
2023-01-09T10:23:12.067Z,-4.07
2023-01-09T10:25:53.714Z,-3.95
2023-01-09T10:28:36.622Z,-3.78
2023-01-09T10:31:41.734Z,-3.72
2023-01-09T10:34:28.224Z,-3.49
2023-01-09T10:37:18.931Z,-3.21
2023-01-09T10:39:50.367Z,-3.19
2023-01-09T10:42:23.948Z,-3.00
2023-01-09T10:45:05.570Z,-2.87
2023-01-09T10:47:37.487Z,-2.67
2023-01-09T10:50:34.000Z,-2.59
2023-01-09T10:53:20.059Z,-2.51
2023-01-09T10:55:54.914Z,-2.71
2023-01-09T10:58:23.300Z,-2.89
2023-01-09T11:00:51.724Z,-2.77
2023-01-09T11:03:22.969Z,-2.44
2023-01-09T11:05:55.881Z,-2.36
2023-01-09T11:08:31.739Z,-2.16
2023-01-09T11:11:01.443Z,-2.32
2023-01-09T11:13:32.624Z,-2.53
2023-01-09T11:16:05.648Z,-2.58
2023-01-09T11:18:38.088Z,-2.42
2023-01-09T11:21:36.256Z,-2.54
2023-01-09T11:24:19.285Z,-2.34
2023-01-09T11:26:51.870Z,-2.10
2023-01-09T11:29:26.855Z,-2.12
2023-01-09T11:32:00.018Z,-2.06
2023-01-09T11:34:30.732Z,-2.05
2023-01-09T11:37:10.764Z,-2.13
2023-01-09T11:39:49.129Z,-2.14
2023-01-09T11:42:47.223Z,-2.06
2023-01-09T11:45:26.248Z,-1.80
2023-01-09T11:47:53.889Z,-1.31
2023-01-09T11:50:25.057Z,-1.34
2023-01-09T11:53:19.497Z,-1.57
2023-01-09T11:55:56.217Z,-1.33
2023-01-09T11:58:24.180Z,-1.07
2023-01-09T12:02:35.658Z,-0.87
2023-01-09T12:05:44.703Z,-1.28
2023-01-09T12:08:27.123Z,-1.62
2023-01-09T12:11:25.155Z,-1.84
2023-01-09T12:14:16.187Z,-1.91
2023-01-09T12:17:02.210Z,-1.87
2023-01-09T12:20:07.229Z,-1.77
2023-01-09T12:23:11.989Z,-1.68
2023-01-09T12:25:56.211Z,-1.62
2023-01-09T12:28:47.480Z,-1.59
2023-01-09T12:31:39.716Z,-1.62
2023-01-09T12:34:23.921Z,-1.55
2023-01-09T12:36:56.429Z,-1.57
2023-01-09T12:39:45.482Z,-1.54
2023-01-09T12:42:36.097Z,-1.56
2023-01-09T12:45:44.097Z,-1.52
2023-01-09T12:48:33.525Z,-1.45
2023-01-09T12:51:33.340Z,-1.61
2023-01-09T12:54:05.996Z,-1.67
2023-01-09T12:56:39.287Z,-1.85
2023-01-09T12:59:11.241Z,-1.92
2023-01-09T13:01:44.923Z,-2.01
2023-01-09T13:04:19.011Z,-2.06
2023-01-09T13:06:56.722Z,-2.08
2023-01-09T13:09:35.161Z,-2.10
2023-01-09T13:12:09.001Z,-2.14
2023-01-09T13:14:47.723Z,-2.25
2023-01-09T13:17:49.281Z,-2.32
2023-01-09T13:20:26.035Z,-2.35
2023-01-09T13:44:52.936Z,-2.66
2023-01-09T13:47:28.628Z,-2.68
2023-01-09T13:50:09.229Z,-2.76
2023-01-09T13:52:42.293Z,-2.78
2023-01-09T13:55:15.641Z,-2.80
2023-01-09T13:58:08.134Z,-2.90
2023-01-09T14:00:36.272Z,-2.97
2023-01-09T14:03:26.182Z,-3.00
2023-01-09T14:05:53.701Z,-3.03
2023-01-09T14:08:33.072Z,-3.08
2023-01-09T14:11:03.515Z,-3.09
2023-01-09T14:13:46.862Z,-3.10
2023-01-09T14:16:14.527Z,-3.13
2023-01-09T14:18:53.011Z,-3.17
2023-01-09T14:21:22.780Z,-3.19
2023-01-09T14:24:03.434Z,-3.13
2023-01-09T14:26:49.415Z,-3.12
2023-01-09T14:29:36.464Z,-3.13
2023-01-09T14:32:22.579Z,-3.08
2023-01-09T14:34:57.593Z,-3.11
2023-01-09T14:37:28.228Z,-3.17
2023-01-09T14:39:57.110Z,-3.17
2023-01-09T14:42:29.572Z,-3.29
2023-01-09T14:45:04.350Z,-3.38
2023-01-09T14:47:36.337Z,-3.36
2023-01-09T14:50:19.491Z,-3.38
2023-01-09T14:52:55.990Z,-3.37
2023-01-09T14:55:36.395Z,-3.44
2023-01-09T14:58:11.598Z,-3.50
2023-01-09T15:00:52.565Z,-3.51
2023-01-09T15:03:21.640Z,-3.47
2023-01-09T15:05:52.976Z,-3.57
2023-01-09T15:14:04.358Z,-3.68
2023-01-09T15:16:39.393Z,-3.87
2023-01-09T15:19:16.406Z,-3.97
2023-01-09T15:22:35.370Z,-3.98
2023-01-09T15:25:27.478Z,-4.04
2023-01-09T15:28:20.046Z,-4.09
2023-01-09T15:30:57.006Z,-4.13
2023-01-09T15:33:25.188Z,-4.12
2023-01-09T15:36:00.133Z,-4.15
2023-01-09T15:38:29.814Z,-4.16
2023-01-09T15:41:35.036Z,-4.20
2023-01-09T15:44:05.573Z,-4.20
2023-01-09T15:46:33.361Z,-4.27
2023-01-09T15:49:03.499Z,-4.29
2023-01-09T15:51:34.219Z,-4.36
2023-01-09T15:54:03.851Z,-4.31
2023-01-09T15:56:35.587Z,-4.39
2023-01-09T15:59:27.375Z,-4.39
2023-01-09T16:02:20.783Z,-4.45
2023-01-09T16:04:55.034Z,-4.50
2023-01-09T16:07:27.853Z,-4.61
2023-01-09T16:15:33.338Z,-4.62
2023-01-09T16:18:19.286Z,-4.59
2023-01-09T16:20:47.516Z,-4.65
2023-01-09T16:23:37.439Z,-4.62
2023-01-09T16:26:10.678Z,-4.68
2023-01-09T16:28:41.040Z,-4.74
2023-01-09T16:31:21.330Z,-4.75
2023-01-09T16:34:04.521Z,-4.74
2023-01-09T16:36:37.896Z,-4.80
2023-01-09T16:39:05.694Z,-4.75
2023-01-09T16:41:53.184Z,-4.72
2023-01-09T16:44:22.221Z,-4.75
2023-01-09T16:46:49.863Z,-4.79
2023-01-09T16:49:25.327Z,-4.83
2023-01-09T16:51:55.480Z,-4.85
2023-01-09T16:54:23.999Z,-4.84
2023-01-09T16:56:54.978Z,-4.90
2023-01-09T16:59:27.338Z,-4.97
2023-01-09T17:01:56.132Z,-5.12
2023-01-09T17:04:24.224Z,-5.16
2023-01-09T17:06:52.194Z,-5.20
2023-01-09T17:09:23.652Z,-5.17
2023-01-09T17:11:55.471Z,-5.27
2023-01-09T17:14:28.793Z,-5.27
2023-01-09T17:16:57.230Z,-5.24
2023-01-09T17:19:24.815Z,-5.24
2023-01-09T17:21:54.662Z,-5.29
2023-01-09T17:29:26.785Z,-5.48
2023-01-09T17:31:55.121Z,-5.47
2023-01-09T17:34:23.820Z,-5.53
2023-01-09T17:36:51.469Z,-5.67
2023-01-09T17:39:19.238Z,-5.73
2023-01-09T17:41:49.235Z,-5.67
2023-01-09T17:44:18.427Z,-5.73
2023-01-09T17:46:46.309Z,-5.81
2023-01-09T17:49:21.579Z,-5.90
2023-01-09T17:51:50.470Z,-6.02
2023-01-09T17:54:20.999Z,-6.03
2023-01-09T17:56:51.295Z,-6.09
2023-01-09T17:59:20.158Z,-6.11
2023-01-09T18:01:48.730Z,-6.11
2023-01-09T18:04:18.676Z,-6.20
2023-01-09T18:06:48.361Z,-6.24
2023-01-09T18:09:18.441Z,-6.13
2023-01-09T18:11:48.624Z,-6.13
2023-01-09T18:14:17.637Z,-6.24
2023-01-09T18:16:45.411Z,-6.29
2023-01-09T18:19:13.230Z,-6.30
2023-01-09T18:21:42.940Z,-6.24
2023-01-09T18:24:10.858Z,-6.54
2023-01-09T18:26:40.070Z,-6.64
2023-01-09T18:29:10.314Z,-6.62
2023-01-09T18:31:37.904Z,-6.61
2023-01-09T18:34:07.497Z,-6.58
2023-01-09T18:36:37.514Z,-6.61
2023-01-09T18:39:08.784Z,-6.66
2023-01-09T18:41:36.866Z,-6.70
2023-01-09T18:44:05.796Z,-6.73
2023-01-09T18:46:33.605Z,-6.75
2023-01-09T18:49:05.083Z,-6.81
2023-01-09T18:51:35.811Z,-6.78
2023-01-09T18:54:04.905Z,-6.90
2023-01-09T18:56:33.063Z,-6.89
2023-01-09T18:59:02.684Z,-6.96
2023-01-09T19:01:31.953Z,-6.90
2023-01-09T19:04:00.301Z,-7.12
2023-01-09T19:06:29.548Z,-7.16
2023-01-09T19:08:58.907Z,-7.19
2023-01-09T19:11:27.455Z,-7.16
2023-01-09T19:14:49.794Z,-7.07
2023-01-09T19:17:29.599Z,-7.12
2023-01-09T19:20:00.890Z,-7.21
2023-01-09T19:22:28.843Z,-7.21
2023-01-09T19:24:56.837Z,-7.17
2023-01-09T19:27:24.482Z,-7.33
2023-01-09T19:29:53.048Z,-7.30
2023-01-09T20:20:02.434Z,-7.76
2023-01-09T20:22:30.400Z,-7.80
2023-01-09T20:25:00.148Z,-7.82
2023-01-09T20:27:27.711Z,-7.86
2023-01-09T20:29:57.595Z,-7.99
2023-01-09T20:32:25.197Z,-7.88
2023-01-09T20:43:00.226Z,-7.84
2023-01-09T20:45:29.127Z,-7.85
2023-01-09T20:47:58.567Z,-8.02
2023-01-09T20:50:34.328Z,-7.96
2023-01-09T20:53:03.450Z,-8.02
2023-01-09T20:55:31.035Z,-8.04
2023-01-09T20:58:04.217Z,-8.04
2023-01-09T21:00:34.500Z,-8.09
2023-01-09T21:55:04.490Z,-8.17
2023-01-09T21:57:32.156Z,-8.09
2023-01-09T22:00:00.630Z,-8.13
2023-01-09T22:02:28.277Z,-8.19
2023-01-09T22:05:00.214Z,-8.22
2023-01-09T22:07:28.006Z,-8.11
2023-01-09T22:09:55.500Z,-8.11
2023-01-09T22:12:23.029Z,-8.12
2023-01-09T22:14:50.574Z,-8.13
2023-01-09T22:17:18.115Z,-8.14
2023-01-09T22:19:45.901Z,-8.12
2023-01-09T22:22:13.401Z,-8.08
2023-01-09T22:24:40.912Z,-8.11
2023-01-09T22:27:09.505Z,-8.15
2023-01-09T22:29:37.088Z,-8.17
2023-01-09T22:32:04.821Z,-8.17
2023-01-09T22:34:32.521Z,-8.18
2023-01-09T22:37:00.160Z,-8.11
2023-01-09T22:39:27.925Z,-8.16
2023-01-09T22:41:55.918Z,-8.09
2023-01-09T22:44:23.413Z,-8.17
2023-01-09T22:46:50.956Z,-8.18
2023-01-09T22:49:18.541Z,-8.14
2023-01-09T22:51:46.200Z,-8.19
2023-01-09T22:54:13.839Z,-8.08
2023-01-09T22:56:41.480Z,-8.13
2023-01-09T22:59:09.074Z,-8.15
2023-01-09T23:01:36.617Z,-8.11
2023-01-09T23:04:04.198Z,-8.08
2023-01-09T23:06:32.241Z,-8.02
2023-01-09T23:08:59.816Z,-8.13
2023-01-09T23:11:48.138Z,-8.10
2023-01-09T23:14:17.778Z,-8.09
2023-01-09T23:16:45.431Z,-8.03
2023-01-09T23:20:56.651Z,-8.01
2023-01-09T23:23:28.180Z,-8.10
2023-01-09T23:25:58.305Z,-8.02
2023-01-09T23:28:27.716Z,-8.01
2023-01-09T23:30:55.326Z,-7.97
2023-01-09T23:33:22.873Z,-8.01
2023-01-09T23:35:50.843Z,-8.11
